createdAt,value
2022-07-27T00:00:29.158Z,101072.66
2022-07-27T00:02:31.875Z,101030.19
2022-07-27T00:04:34.582Z,101041.84
2022-07-27T00:06:37.284Z,101079.59
2022-07-27T00:08:40.353Z,101098.19
2022-07-27T00:10:42.926Z,101065.56
2022-07-27T00:12:46.661Z,101081.22
2022-07-27T00:14:49.318Z,101060.22
2022-07-27T00:16:51.953Z,101038.72
2022-07-27T00:18:54.688Z,101078.00
2022-07-27T00:20:57.328Z,100999.13
2022-07-27T00:23:00.185Z,101105.13
2022-07-27T00:25:02.835Z,101062.63
2022-07-27T00:27:05.453Z,101081.75
2022-07-27T00:29:08.549Z,101010.03
2022-07-27T00:31:11.539Z,101037.41
2022-07-27T00:33:16.900Z,101065.84
2022-07-27T00:35:20.973Z,101056.78
2022-07-27T00:37:23.591Z,101048.31
2022-07-27T00:39:33.237Z,101079.13
2022-07-27T00:41:35.827Z,101014.31
2022-07-27T00:43:56.710Z,101068.50
2022-07-27T00:45:59.600Z,101091.63
2022-07-27T00:48:07.299Z,101067.97
2022-07-27T00:50:10.944Z,101095.59
2022-07-27T00:52:14.999Z,101071.69
2022-07-27T00:54:17.797Z,101086.06
2022-07-27T00:56:21.792Z,101026.50
2022-07-27T00:58:25.856Z,101087.63
2022-07-27T01:00:29.215Z,101079.13
2022-07-27T01:02:31.985Z,101079.91
2022-07-27T01:04:35.413Z,101114.22
2022-07-27T01:06:38.240Z,101112.09
2022-07-27T01:08:42.608Z,101121.13
2022-07-27T01:10:45.801Z,101029.13
2022-07-27T01:12:48.679Z,101083.34
2022-07-27T01:14:53.177Z,101019.75
2022-07-27T01:16:55.748Z,101062.25
2022-07-27T01:18:58.327Z,101089.97
2022-07-27T01:21:04.418Z,101072.88
2022-07-27T01:23:07.015Z,101086.44
2022-07-27T01:25:10.680Z,101057.16
2022-07-27T01:27:13.247Z,101102.34
2022-07-27T01:29:16.568Z,101077.09
2022-07-27T01:31:19.275Z,101094.56
2022-07-27T01:33:26.082Z,101114.47
2022-07-27T01:35:29.733Z,101098.53
2022-07-27T01:37:32.428Z,101097.44
2022-07-27T01:39:35.126Z,101096.63
2022-07-27T01:41:37.786Z,101089.41
2022-07-27T01:43:41.091Z,101133.03
2022-07-27T01:45:43.815Z,101018.88
2022-07-27T01:47:46.372Z,101079.00
2022-07-27T01:49:48.983Z,101064.06
2022-07-27T01:51:51.767Z,101112.25
2022-07-27T01:53:54.828Z,101137.75
2022-07-27T01:55:57.422Z,101106.56
2022-07-27T01:58:03.936Z,101078.03
2022-07-27T02:00:13.634Z,101131.31
2022-07-27T02:02:16.415Z,101033.06
2022-07-27T02:04:18.997Z,101128.56
2022-07-27T02:06:21.639Z,101087.56
2022-07-27T02:08:24.253Z,101078.41
2022-07-27T02:10:26.892Z,101128.19
2022-07-27T02:12:35.636Z,101112.97
2022-07-27T02:14:38.222Z,101017.41
2022-07-27T02:16:41.262Z,101091.91
2022-07-27T02:18:45.875Z,101119.59
2022-07-27T02:20:51.657Z,101098.56
2022-07-27T02:22:55.281Z,101137.72
2022-07-27T02:24:58.304Z,101102.84
2022-07-27T02:27:00.952Z,101104.47
2022-07-27T02:29:03.536Z,101018.84
2022-07-27T02:31:06.288Z,101094.41
2022-07-27T02:33:09.227Z,101108.56
2022-07-27T02:35:18.246Z,101039.03
2022-07-27T02:37:23.051Z,101115.38
2022-07-27T02:39:25.656Z,101049.13
2022-07-27T02:41:29.253Z,101069.03
2022-07-27T02:43:31.842Z,101105.50
2022-07-27T02:45:34.479Z,101033.84
2022-07-27T02:47:38.030Z,101111.81
2022-07-27T02:49:40.578Z,101129.47
2022-07-27T02:51:43.214Z,101092.16
2022-07-27T02:53:45.879Z,101124.19
2022-07-27T02:55:48.483Z,101115.72
2022-07-27T02:57:51.057Z,101108.19
2022-07-27T02:59:53.864Z,100967.72
2022-07-27T03:02:01.075Z,101110.59
2022-07-27T03:04:04.382Z,101144.91
2022-07-27T03:06:07.862Z,101140.38
2022-07-27T03:08:10.587Z,101088.66
2022-07-27T03:10:13.211Z,101099.25
2022-07-27T03:12:15.784Z,101130.91
2022-07-27T03:14:18.404Z,101139.16
2022-07-27T03:16:21.728Z,101133.53
2022-07-27T03:18:25.284Z,101147.91
2022-07-27T03:20:33.803Z,101047.72
2022-07-27T03:22:36.517Z,101149.47
2022-07-27T03:24:39.206Z,101126.81
2022-07-27T03:26:41.867Z,101102.06
2022-07-27T03:28:44.447Z,101085.53
2022-07-27T03:30:47.079Z,101128.69
2022-07-27T03:32:49.850Z,101163.50
2022-07-27T03:34:52.880Z,101157.47
2022-07-27T03:36:55.459Z,101115.50
2022-07-27T03:38:59.793Z,101021.25
2022-07-27T03:41:05.042Z,101064.47
2022-07-27T03:43:08.290Z,101007.81
2022-07-27T03:45:11.199Z,101066.63
2022-07-27T03:47:13.758Z,101091.59
2022-07-27T03:49:16.869Z,101051.88
2022-07-27T03:51:19.770Z,101031.88
2022-07-27T03:53:22.855Z,101061.72
2022-07-27T03:55:25.996Z,101117.41
2022-07-27T03:57:28.594Z,101154.16
2022-07-27T03:59:32.201Z,101124.34
2022-07-27T04:01:34.958Z,101136.81
2022-07-27T04:03:42.432Z,101037.00
2022-07-27T04:05:46.768Z,101033.84
2022-07-27T04:07:49.924Z,101020.88
2022-07-27T04:09:57.549Z,101077.34
2022-07-27T04:12:00.763Z,101113.09
2022-07-27T04:14:03.820Z,101091.31
2022-07-27T04:16:06.431Z,101130.00
2022-07-27T04:18:09.014Z,101148.72
2022-07-27T04:20:11.754Z,101030.94
2022-07-27T04:22:14.353Z,101026.72
2022-07-27T04:24:16.914Z,101115.88
2022-07-27T04:26:20.016Z,101147.03
2022-07-27T04:28:22.728Z,101032.16
2022-07-27T04:30:26.221Z,101118.03
2022-07-27T04:32:30.101Z,101091.75
2022-07-27T04:34:32.670Z,101129.03
2022-07-27T04:36:37.983Z,101034.88
2022-07-27T04:38:40.612Z,101109.91
2022-07-27T04:40:43.167Z,101074.03
2022-07-27T04:42:49.616Z,101102.25
2022-07-27T04:44:52.594Z,101128.03
2022-07-27T04:46:55.148Z,101117.66
2022-07-27T04:48:58.175Z,101094.00
2022-07-27T04:51:01.562Z,101083.88
2022-07-27T04:53:04.139Z,101022.78
2022-07-27T04:55:07.025Z,101101.72
2022-07-27T04:57:09.637Z,101065.84
2022-07-27T04:59:12.695Z,101109.16
2022-07-27T05:01:16.066Z,101126.44
2022-07-27T05:03:18.780Z,101152.50
2022-07-27T05:05:22.249Z,101105.16
2022-07-27T05:07:26.552Z,101131.25
2022-07-27T05:09:29.449Z,101148.53
2022-07-27T05:11:32.162Z,101024.94
2022-07-27T05:13:37.847Z,101073.53
2022-07-27T05:15:55.582Z,101158.34
2022-07-27T05:17:58.595Z,101142.41
2022-07-27T05:20:03.053Z,101126.72
2022-07-27T05:22:05.756Z,101096.69
2022-07-27T05:24:08.447Z,101179.34
2022-07-27T05:26:12.324Z,101172.97
2022-07-27T05:28:14.988Z,101158.88
2022-07-27T05:30:17.779Z,101116.88
2022-07-27T05:32:41.098Z,101018.56
2022-07-27T05:34:47.016Z,101008.41
2022-07-27T05:36:49.704Z,101085.22
2022-07-27T05:38:52.279Z,101084.41
2022-07-27T05:40:54.892Z,101170.81
2022-07-27T05:42:57.811Z,101196.59
2022-07-27T05:45:01.866Z,101200.34
2022-07-27T05:47:06.224Z,101208.28
2022-07-27T05:49:09.522Z,101154.53
2022-07-27T05:51:12.469Z,101103.44
2022-07-27T05:53:15.041Z,101088.56
2022-07-27T05:55:17.699Z,101198.75
2022-07-27T05:57:20.314Z,101191.09
2022-07-27T05:59:24.251Z,101193.44
2022-07-27T06:01:27.680Z,101200.78
2022-07-27T06:03:32.540Z,101197.91
2022-07-27T06:05:35.283Z,101196.34
2022-07-27T06:07:56.254Z,101213.00
2022-07-27T06:10:03.360Z,101197.03
2022-07-27T06:12:06.876Z,101217.47
2022-07-27T06:14:09.790Z,101195.00
2022-07-27T06:16:12.539Z,101152.25
2022-07-27T06:18:18.316Z,101129.91
2022-07-27T06:20:22.532Z,101156.13
2022-07-27T06:22:25.171Z,101153.13
2022-07-27T06:24:27.800Z,101171.00
2022-07-27T06:26:30.516Z,101171.00
2022-07-27T06:28:33.220Z,101182.84
2022-07-27T06:30:36.121Z,101113.25
2022-07-27T06:32:39.019Z,101092.16
2022-07-27T06:34:43.287Z,101088.53
2022-07-27T06:36:47.058Z,101176.63
2022-07-27T06:38:50.109Z,101188.97
2022-07-27T06:40:53.747Z,101215.34
2022-07-27T06:42:56.756Z,101207.84
2022-07-27T06:44:59.547Z,101164.75
2022-07-27T06:47:02.219Z,101109.66
2022-07-27T06:49:04.978Z,101102.78
2022-07-27T06:51:08.743Z,101234.69
2022-07-27T06:53:11.411Z,101063.88
2022-07-27T06:55:14.342Z,101212.91
2022-07-27T06:57:17.014Z,101205.34
2022-07-27T06:59:19.563Z,101127.03
2022-07-27T07:01:23.405Z,101198.13
2022-07-27T07:03:26.627Z,101218.63
2022-07-27T07:05:30.035Z,101184.78
2022-07-27T07:07:32.728Z,101192.34
2022-07-27T07:09:35.793Z,101138.50
2022-07-27T07:11:38.506Z,101081.84
2022-07-27T07:13:44.928Z,101196.97
2022-07-27T07:15:50.260Z,101229.06
2022-07-27T07:17:54.373Z,101087.50
2022-07-27T07:19:57.188Z,101189.53
2022-07-27T07:22:00.827Z,101188.31
2022-07-27T07:24:03.778Z,101194.22
2022-07-27T07:26:07.006Z,101134.59
2022-07-27T07:28:09.644Z,101191.75
2022-07-27T07:30:13.063Z,101162.13
2022-07-27T07:32:16.328Z,101209.78
2022-07-27T07:34:19.015Z,101181.97
2022-07-27T07:36:25.899Z,101212.19
2022-07-27T07:38:28.517Z,101176.97
2022-07-27T07:40:46.480Z,101152.78
2022-07-27T07:42:54.502Z,101227.88
2022-07-27T07:44:57.175Z,101226.69
2022-07-27T07:47:00.522Z,101192.81
2022-07-27T07:49:05.070Z,101208.97
2022-07-27T07:51:07.765Z,101140.31
2022-07-27T07:53:10.452Z,101189.78
2022-07-27T07:55:21.292Z,101236.06
2022-07-27T07:57:24.266Z,101187.72
2022-07-27T07:59:28.338Z,101202.72
2022-07-27T08:01:31.556Z,101189.97
2022-07-27T08:03:34.958Z,101179.97
2022-07-27T08:05:37.742Z,101188.47
2022-07-27T08:07:41.791Z,101147.84
2022-07-27T08:09:44.653Z,101169.94
2022-07-27T08:11:49.297Z,101170.09
2022-07-27T08:13:51.899Z,101197.47
2022-07-27T08:15:54.586Z,101230.59
2022-07-27T08:17:57.249Z,101182.13
2022-07-27T08:19:59.865Z,101184.94
2022-07-27T08:22:02.543Z,101207.09
2022-07-27T08:24:05.327Z,101215.16
2022-07-27T08:26:08.389Z,101174.59
2022-07-27T08:28:11.023Z,101211.25
2022-07-27T08:30:13.955Z,101169.47
2022-07-27T08:32:16.713Z,101181.16
2022-07-27T08:34:19.371Z,101194.31
2022-07-27T08:36:21.999Z,101213.50
2022-07-27T08:38:27.354Z,101219.34
2022-07-27T08:40:46.749Z,101148.63
2022-07-27T08:42:49.939Z,101085.50
2022-07-27T08:44:54.345Z,101177.19
2022-07-27T08:47:02.616Z,101246.13
2022-07-27T08:49:05.430Z,101232.47
2022-07-27T08:51:08.132Z,101145.81
2022-07-27T08:53:13.522Z,101237.09
2022-07-27T08:55:16.444Z,101165.63
2022-07-27T08:57:19.179Z,101241.53
2022-07-27T08:59:21.740Z,101154.25
2022-07-27T09:01:24.436Z,101243.09
2022-07-27T09:03:27.140Z,101207.09
2022-07-27T09:05:37.113Z,101164.63
2022-07-27T09:07:40.975Z,101164.72
2022-07-27T09:09:47.051Z,101197.84
2022-07-27T09:12:10.641Z,101208.25
2022-07-27T09:14:14.378Z,101203.50
2022-07-27T09:16:19.352Z,101195.72
2022-07-27T09:18:28.528Z,101237.31
2022-07-27T09:20:31.198Z,101200.28
2022-07-27T09:22:53.147Z,101207.00
2022-07-27T09:25:02.727Z,101188.13
2022-07-27T09:27:05.891Z,101247.19
2022-07-27T09:29:09.826Z,101236.94
2022-07-27T09:31:15.701Z,101212.16
2022-07-27T09:33:18.393Z,101215.34
2022-07-27T09:35:36.637Z,101220.28
2022-07-27T09:37:40.018Z,101220.75
2022-07-27T09:40:09.993Z,101246.31
2022-07-27T09:43:03.842Z,101217.06
2022-07-27T09:44:45.249Z,101222.72
2022-07-27T09:46:48.773Z,101140.00
2022-07-27T09:48:58.738Z,101195.03
2022-07-27T09:51:32.812Z,101236.34
2022-07-27T09:53:43.632Z,101192.56
2022-07-27T09:56:02.635Z,101201.13
2022-07-27T09:58:05.346Z,101227.00
2022-07-27T10:00:14.039Z,101192.94
2022-07-27T10:02:16.982Z,101196.78
2022-07-27T10:04:20.841Z,101197.09
2022-07-27T10:06:25.315Z,101204.06
2022-07-27T10:08:54.537Z,101165.72
2022-07-27T10:10:58.116Z,101209.53
2022-07-27T10:13:00.748Z,101198.91
2022-07-27T10:15:03.546Z,101171.81
2022-07-27T10:17:07.652Z,101185.78
2022-07-27T10:19:20.465Z,101220.47
2022-07-27T10:21:24.869Z,101196.69
2022-07-27T10:23:29.283Z,101188.34
2022-07-27T10:25:32.513Z,101121.84
2022-07-27T10:27:41.351Z,101209.97
2022-07-27T10:29:44.070Z,101170.28
2022-07-27T10:31:52.657Z,101222.47
2022-07-27T10:34:38.608Z,101205.28
2022-07-27T10:36:48.384Z,101178.69
2022-07-27T10:38:56.520Z,101213.38
2022-07-27T10:41:25.722Z,101216.66
2022-07-27T10:43:28.334Z,101189.03
2022-07-27T10:45:59.978Z,101196.09
2022-07-27T10:48:47.525Z,101190.34
2022-07-27T10:50:53.156Z,101100.69
2022-07-27T10:53:07.789Z,101050.06
2022-07-27T10:55:36.481Z,101214.78
2022-07-27T10:57:44.548Z,101032.78
2022-07-27T11:00:08.106Z,101184.50
2022-07-27T11:02:20.922Z,100965.53
2022-07-27T11:04:26.590Z,101071.88
2022-07-27T11:06:37.622Z,101099.72
2022-07-27T11:09:17.070Z,101114.25
2022-07-27T11:11:21.447Z,101083.84
2022-07-27T11:13:35.364Z,100999.06
2022-07-27T11:16:22.802Z,101061.72
2022-07-27T11:18:39.153Z,101046.03
2022-07-27T11:20:42.554Z,101137.34
2022-07-27T11:23:20.821Z,101126.09
2022-07-27T11:25:09.214Z,101189.88
2022-07-27T11:27:19.149Z,101112.31
2022-07-27T11:29:25.715Z,100977.84
2022-07-27T11:31:52.816Z,101096.66
2022-07-27T11:34:00.766Z,101084.06
2022-07-27T11:36:06.617Z,101103.41
2022-07-27T11:38:09.573Z,101061.75
2022-07-27T11:40:37.496Z,101120.66
2022-07-27T11:42:40.153Z,101163.72
2022-07-27T11:44:44.768Z,101183.38
2022-07-27T11:46:52.273Z,101210.00
2022-07-27T11:49:09.445Z,101205.13
2022-07-27T11:51:20.732Z,101212.75
2022-07-27T11:53:23.377Z,101102.94
2022-07-27T11:55:30.708Z,101115.66
2022-07-27T11:57:33.991Z,101183.34
2022-07-27T11:59:46.828Z,101206.03
2022-07-27T12:02:01.740Z,101202.34
2022-07-27T12:04:16.571Z,101006.50
2022-07-27T12:06:20.202Z,101022.50
2022-07-27T12:08:32.857Z,100977.19
2022-07-27T12:10:37.707Z,101181.22
2022-07-27T12:12:51.426Z,101175.84
2022-07-27T12:14:57.391Z,101148.25
2022-07-27T12:17:31.157Z,101170.56
2022-07-27T12:19:34.001Z,101184.78
2022-07-27T12:21:36.986Z,101167.84
2022-07-27T12:23:52.547Z,101189.53
2022-07-27T12:25:56.453Z,101142.59
2022-07-27T12:28:18.061Z,101173.03
2022-07-27T12:30:49.087Z,101202.88
2022-07-27T12:33:03.030Z,101196.41
2022-07-27T12:35:36.272Z,101161.97
2022-07-27T12:37:42.754Z,101158.75
2022-07-27T12:39:46.814Z,101184.66
2022-07-27T12:42:07.012Z,101167.78
2022-07-27T12:44:12.859Z,101175.28
2022-07-27T12:46:17.272Z,101160.75
2022-07-27T12:48:28.213Z,101157.59
2022-07-27T12:50:30.830Z,101111.81
2022-07-27T12:52:37.695Z,101173.03
2022-07-27T12:54:40.336Z,101135.84
2022-07-27T12:56:43.094Z,101100.38
2022-07-27T12:59:03.523Z,101170.69
2022-07-27T13:01:06.870Z,101169.59
2022-07-27T13:03:10.694Z,101200.19
2022-07-27T13:05:15.452Z,101156.47
2022-07-27T13:07:19.420Z,101191.66
2022-07-27T13:09:22.507Z,101097.06
2022-07-27T13:11:27.179Z,101182.59
2022-07-27T13:13:29.868Z,101142.53
2022-07-27T13:15:32.597Z,101161.38
2022-07-27T13:17:36.011Z,101186.22
2022-07-27T13:19:38.716Z,101167.09
2022-07-27T13:21:41.915Z,101147.59
2022-07-27T13:23:46.626Z,101152.19
2022-07-27T13:25:49.502Z,101161.22
2022-07-27T13:27:52.466Z,101163.44
2022-07-27T13:29:55.458Z,101191.94
2022-07-27T13:31:58.232Z,101184.97
2022-07-27T13:34:03.657Z,101172.63
2022-07-27T13:36:16.379Z,101128.91
2022-07-27T13:38:19.018Z,101087.75
2022-07-27T13:40:29.015Z,101133.03
2022-07-27T13:42:39.565Z,101180.09
2022-07-27T13:45:03.794Z,101186.88
2022-07-27T13:47:06.947Z,101124.75
2022-07-27T13:49:09.547Z,101162.66
2022-07-27T13:51:15.901Z,101181.72
2022-07-27T13:53:19.073Z,101067.84
2022-07-27T13:55:27.712Z,101197.53
2022-07-27T13:57:30.763Z,101154.88
2022-07-27T13:59:33.427Z,101140.38
2022-07-27T14:01:38.410Z,101176.84
2022-07-27T14:04:14.684Z,101160.25
2022-07-27T14:06:20.338Z,101191.72
2022-07-27T14:08:26.682Z,101141.28
2022-07-27T14:10:32.114Z,101059.69
2022-07-27T14:12:34.737Z,101106.00
2022-07-27T14:14:37.560Z,101089.09
2022-07-27T14:16:40.320Z,101186.50
2022-07-27T14:18:43.092Z,101138.13
2022-07-27T14:20:45.690Z,101152.22
2022-07-27T14:22:48.386Z,101181.72
2022-07-27T14:24:55.279Z,101140.16
2022-07-27T14:27:02.472Z,101160.19
2022-07-27T14:29:05.187Z,101151.53
2022-07-27T14:31:11.151Z,101179.00
2022-07-27T14:33:19.873Z,101152.16
2022-07-27T14:35:23.078Z,101164.25
2022-07-27T14:37:25.692Z,101171.38
2022-07-27T14:39:28.433Z,101054.81
2022-07-27T14:41:31.499Z,101086.38
2022-07-27T14:43:49.329Z,101177.16
2022-07-27T14:45:52.078Z,101170.69
2022-07-27T14:48:04.138Z,101183.06
2022-07-27T14:50:09.655Z,101171.50
2022-07-27T14:52:15.665Z,101146.31
2022-07-27T14:54:18.365Z,101116.66
2022-07-27T14:56:21.363Z,101157.66
2022-07-27T14:58:24.118Z,101070.00
2022-07-27T15:00:37.666Z,101149.75
2022-07-27T15:02:42.867Z,101177.19
2022-07-27T15:04:46.718Z,101162.59
2022-07-27T15:06:49.545Z,101172.53
2022-07-27T15:08:52.335Z,101151.94
2022-07-27T15:10:57.687Z,101137.84
2022-07-27T15:13:00.589Z,101166.09
2022-07-27T15:15:05.398Z,101174.78
2022-07-27T15:17:08.869Z,101151.63
2022-07-27T15:19:12.707Z,101121.19
2022-07-27T15:21:15.481Z,101144.63
2022-07-27T15:23:18.064Z,101153.16
2022-07-27T15:25:22.323Z,101156.88
2022-07-27T15:27:25.148Z,101143.13
2022-07-27T15:29:27.767Z,101055.22
2022-07-27T15:31:31.176Z,101191.34
2022-07-27T15:33:33.763Z,101080.72
2022-07-27T15:35:36.490Z,101188.72
2022-07-27T15:37:39.337Z,101055.50
2022-07-27T15:39:42.329Z,101146.19
2022-07-27T15:41:44.925Z,101090.25
2022-07-27T15:43:48.765Z,101090.84
2022-07-27T15:45:51.713Z,101192.16
2022-07-27T15:47:54.334Z,101157.13
2022-07-27T15:49:56.907Z,101162.88
2022-07-27T15:52:01.230Z,101148.25
2022-07-27T15:54:05.154Z,101133.53
2022-07-27T15:56:08.433Z,101076.44
2022-07-27T15:58:13.562Z,101158.94
2022-07-27T16:00:16.588Z,101136.72
2022-07-27T16:02:24.650Z,101126.41
2022-07-27T16:04:28.183Z,101154.53
2022-07-27T16:06:38.261Z,101085.44
2022-07-27T16:08:41.569Z,101146.25
2022-07-27T16:10:45.463Z,101092.50
2022-07-27T16:12:48.181Z,101166.09
2022-07-27T16:14:50.793Z,101142.41
2022-07-27T16:16:54.359Z,101105.00
2022-07-27T16:19:12.710Z,101094.47
2022-07-27T16:21:16.387Z,101157.00
2022-07-27T16:23:22.103Z,101141.84
2022-07-27T16:25:45.860Z,101160.84
2022-07-27T16:27:47.550Z,101126.25
2022-07-27T16:29:50.209Z,101043.63
2022-07-27T16:31:58.192Z,101130.38
2022-07-27T16:34:00.913Z,101139.44
2022-07-27T16:36:06.008Z,101117.75
2022-07-27T16:38:11.936Z,101138.31
2022-07-27T16:40:15.706Z,101109.34
2022-07-27T16:42:18.374Z,101123.03
2022-07-27T16:44:21.682Z,101126.50
2022-07-27T16:46:24.424Z,101095.88
2022-07-27T16:48:27.032Z,101052.00
2022-07-27T16:50:29.739Z,101111.16
2022-07-27T16:52:33.102Z,101129.00
2022-07-27T16:54:39.603Z,101145.19
2022-07-27T16:56:42.507Z,101148.06
2022-07-27T16:58:45.226Z,101122.94
2022-07-27T17:00:47.798Z,101094.50
2022-07-27T17:02:52.537Z,101010.97
2022-07-27T17:04:55.149Z,100991.50
2022-07-27T17:06:58.834Z,101089.50
2022-07-27T17:09:02.557Z,101126.63
2022-07-27T17:11:06.697Z,101134.06
2022-07-27T17:13:13.605Z,101109.47
2022-07-27T17:15:16.774Z,101112.56
2022-07-27T17:17:19.589Z,101055.66
2022-07-27T17:19:22.197Z,101108.56
2022-07-27T17:21:25.234Z,101122.69
2022-07-27T17:23:33.458Z,101107.09
2022-07-27T17:25:38.427Z,101074.06
2022-07-27T17:27:41.479Z,101064.41
2022-07-27T17:30:00.260Z,101112.16
2022-07-27T17:32:02.853Z,101135.34
2022-07-27T17:34:05.432Z,101038.13
2022-07-27T17:36:15.156Z,101074.81
2022-07-27T17:38:19.988Z,101003.59
2022-07-27T17:40:23.479Z,100995.34
2022-07-27T17:42:28.138Z,101110.50
2022-07-27T17:44:38.053Z,101106.91
2022-07-27T17:46:41.088Z,101123.41
2022-07-27T17:48:43.842Z,101122.16
2022-07-27T17:50:46.743Z,101074.22
2022-07-27T17:52:49.342Z,101138.72
2022-07-27T17:54:57.400Z,101086.66
2022-07-27T17:56:59.992Z,101022.94
2022-07-27T17:59:27.008Z,101095.22
2022-07-27T18:01:46.323Z,101127.88
2022-07-27T18:04:16.005Z,101104.88
2022-07-27T18:06:18.761Z,101105.91
2022-07-27T18:08:21.855Z,101139.16
2022-07-27T18:10:38.191Z,101151.75
2022-07-27T18:12:41.383Z,101147.84
2022-07-27T18:15:04.076Z,101131.50
2022-07-27T18:17:06.709Z,101119.97
2022-07-27T18:19:09.561Z,101137.03
2022-07-27T18:21:13.583Z,101152.94
2022-07-27T18:23:16.597Z,101125.44
2022-07-27T18:25:19.359Z,101121.91
2022-07-27T18:27:25.546Z,101141.34
2022-07-27T18:29:31.189Z,101146.47
2022-07-27T18:31:34.989Z,101155.78
2022-07-27T18:33:38.069Z,101077.56
2022-07-27T18:35:43.194Z,101135.66
2022-07-27T18:37:45.879Z,101135.63
2022-07-27T18:39:48.456Z,101129.84
2022-07-27T18:41:52.317Z,101113.75
2022-07-27T18:43:55.764Z,101143.75
2022-07-27T18:46:17.346Z,101138.28
2022-07-27T18:48:20.280Z,101153.19
2022-07-27T18:50:23.689Z,101173.91
2022-07-27T18:52:29.269Z,101151.69
2022-07-27T18:54:31.866Z,101161.31
2022-07-27T18:56:34.418Z,101145.47
2022-07-27T18:58:38.590Z,101157.72
2022-07-27T19:00:42.711Z,101183.25
2022-07-27T19:02:46.197Z,101091.44
2022-07-27T19:04:50.631Z,101168.47
2022-07-27T19:06:53.238Z,101173.25
2022-07-27T19:08:56.005Z,101168.50
2022-07-27T19:10:58.751Z,101144.63
2022-07-27T19:13:01.318Z,101162.72
2022-07-27T19:15:05.009Z,101188.78
2022-07-27T19:17:08.083Z,101187.50
2022-07-27T19:19:22.847Z,101103.34
2022-07-27T19:21:27.001Z,101170.31
2022-07-27T19:23:29.893Z,101175.16
2022-07-27T19:25:33.884Z,101206.53
2022-07-27T19:27:43.175Z,101173.09
2022-07-27T19:29:46.613Z,101181.09
2022-07-27T19:31:49.422Z,101214.84
2022-07-27T19:33:52.615Z,101133.03
2022-07-27T19:35:55.727Z,101197.91
2022-07-27T19:37:58.613Z,101200.84
2022-07-27T19:40:20.354Z,101147.69
2022-07-27T19:42:26.938Z,101197.91
2022-07-27T19:44:29.787Z,101224.78
2022-07-27T19:46:32.444Z,101208.84
2022-07-27T19:48:35.194Z,101128.06
2022-07-27T19:50:38.152Z,101210.47
2022-07-27T19:52:41.185Z,101172.97
2022-07-27T19:54:43.969Z,101232.03
2022-07-27T19:57:06.334Z,101205.69
2022-07-27T19:59:13.623Z,101205.44
2022-07-27T20:01:43.122Z,101189.19
2022-07-27T20:03:52.197Z,101256.25
2022-07-27T20:05:57.555Z,101217.94
2022-07-27T20:08:12.978Z,101253.06
2022-07-27T20:10:15.714Z,101138.09
2022-07-27T20:12:19.467Z,101101.91
2022-07-27T20:14:23.168Z,101120.50
2022-07-27T20:16:30.421Z,101261.00
2022-07-27T20:19:08.761Z,101225.31
2022-07-27T20:21:22.341Z,101164.88
2022-07-27T20:23:26.024Z,101160.34
2022-07-27T20:25:28.787Z,101147.06
2022-07-27T20:27:31.594Z,101230.56
2022-07-27T20:29:34.241Z,101151.53
2022-07-27T20:31:38.586Z,101259.84
2022-07-27T20:33:41.459Z,101264.63
2022-07-27T20:35:45.571Z,101246.50
2022-07-27T20:37:48.396Z,101187.91
2022-07-27T20:39:51.941Z,101171.09
2022-07-27T20:41:54.755Z,101179.34
2022-07-27T20:43:58.835Z,101261.88
2022-07-27T20:46:01.447Z,101215.00
2022-07-27T20:48:12.448Z,101155.81
2022-07-27T20:50:15.493Z,101149.94
2022-07-27T20:52:18.287Z,101138.75
2022-07-27T20:54:28.993Z,101189.28
2022-07-27T20:56:34.477Z,101196.44
2022-07-27T20:58:37.217Z,101097.06
2022-07-27T21:00:40.001Z,101181.22
2022-07-27T21:02:42.958Z,101255.72
2022-07-27T21:04:45.635Z,101163.28
2022-07-27T21:06:48.459Z,101183.47
2022-07-27T21:08:52.279Z,101298.25
2022-07-27T21:10:55.889Z,101268.06
2022-07-27T21:12:58.627Z,101285.91
2022-07-27T21:15:02.636Z,101219.22
2022-07-27T21:17:11.215Z,101147.22
2022-07-27T21:19:14.280Z,101242.50
2022-07-27T21:21:27.494Z,101175.81
2022-07-27T21:23:52.475Z,101292.00
2022-07-27T21:26:00.574Z,101311.41
2022-07-27T21:28:04.646Z,101198.25
2022-07-27T21:30:08.695Z,101197.94
2022-07-27T21:32:11.787Z,101207.22
2022-07-27T21:34:17.146Z,101330.56
2022-07-27T21:36:20.117Z,101336.88
2022-07-27T21:38:26.128Z,101315.50
2022-07-27T21:40:28.862Z,101319.13
2022-07-27T21:42:33.150Z,101342.06
2022-07-27T21:44:37.589Z,101231.59
2022-07-27T21:46:40.146Z,101308.38
2022-07-27T21:48:43.025Z,101286.88
2022-07-27T21:50:45.709Z,101310.31
2022-07-27T21:52:48.273Z,101212.66
2022-07-27T21:54:50.969Z,101202.97
2022-07-27T21:56:53.601Z,101313.38
2022-07-27T21:58:56.225Z,101318.06
2022-07-27T22:00:58.866Z,101225.13
2022-07-27T22:03:01.594Z,101309.50
2022-07-27T22:05:04.658Z,101159.72
2022-07-27T22:07:07.227Z,101224.75
2022-07-27T22:09:20.332Z,101351.75
2022-07-27T22:11:22.927Z,101321.81
2022-07-27T22:13:26.579Z,101325.81
2022-07-27T22:15:29.176Z,101327.91
2022-07-27T22:17:45.948Z,101342.81
2022-07-27T22:19:53.447Z,101334.16
2022-07-27T22:21:56.384Z,101328.59
2022-07-27T22:23:59.069Z,101304.47
2022-07-27T22:26:01.759Z,101312.19
2022-07-27T22:28:06.415Z,101334.28
2022-07-27T22:30:10.501Z,101337.19
2022-07-27T22:32:13.102Z,101297.03
2022-07-27T22:34:16.195Z,101350.41
2022-07-27T22:36:19.159Z,101362.44
2022-07-27T22:38:23.859Z,101251.22
2022-07-27T22:40:31.091Z,101239.69
2022-07-27T22:42:33.762Z,101315.38
2022-07-27T22:44:38.142Z,101372.09
2022-07-27T22:46:40.796Z,101344.81
2022-07-27T22:48:43.447Z,101336.94
2022-07-27T22:50:47.774Z,101384.44
2022-07-27T22:52:52.584Z,101270.94
2022-07-27T22:54:55.175Z,101261.31
2022-07-27T22:56:57.768Z,101370.47
2022-07-27T22:59:00.365Z,101348.19
2022-07-27T23:01:03.032Z,101332.97
2022-07-27T23:03:05.743Z,101348.81
2022-07-27T23:05:08.635Z,101386.22
2022-07-27T23:07:11.234Z,101350.75
2022-07-27T23:09:14.402Z,101240.66
2022-07-27T23:11:17.336Z,101384.28
2022-07-27T23:13:22.984Z,101376.22
2022-07-27T23:15:55.153Z,101359.63
2022-07-27T23:17:57.781Z,101385.78
2022-07-27T23:20:00.353Z,101378.38
2022-07-27T23:22:02.914Z,101327.03
2022-07-27T23:24:05.912Z,101381.03
2022-07-27T23:26:08.565Z,101347.84
2022-07-27T23:28:12.196Z,101399.06
2022-07-27T23:30:14.783Z,101391.13
2022-07-27T23:32:17.518Z,101269.13
2022-07-27T23:34:20.798Z,101372.78
2022-07-27T23:36:25.077Z,101378.81
2022-07-27T23:38:27.641Z,101298.38
2022-07-27T23:40:30.410Z,101407.03
2022-07-27T23:42:35.131Z,101368.84
2022-07-27T23:44:37.687Z,101271.81
2022-07-27T23:46:40.304Z,101363.72
2022-07-27T23:48:42.967Z,101369.19
2022-07-27T23:50:45.786Z,101337.91
2022-07-27T23:52:49.727Z,101372.06
2022-07-27T23:54:52.358Z,101299.34